Time;durP1;ratioP1;P1;durP2;ratioP2;P2;SDS_P1;SDS_P2;PMS_P1;PMS_P2;Temp;Humidity;BMP_temperature;BMP_pressure;BME280_temperature;BME280_humidity;BME280_pressure;Samples;Min_cycle;Max_cycle;Signal;HPM_P1;HPM_P2
2022/06/23 00:00:00;;;;;;;;;;;;;;;12.04;90.40;97822.66;1689651;84;20201;-86
2022/06/23 00:02:28;;;;;;;;;;;;;;;12.01;90.36;97818.38;1701854;83;21081;-86
2022/06/23 00:04:57;;;;;;;;;;;;;;;12.01;90.36;97818.38;1689593;84;20173;-86
2022/06/23 00:07:29;;;;;;;;;;;;;;;12.01;90.44;97821.09;1703885;82;20460;-85
2022/06/23 00:09:56;;;;;;;;;;;;;;;12.00;90.78;97814.86;1689683;84;20175;-86
2022/06/23 00:12:28;;;;;;;;;;;;;;;12.02;90.13;97818.63;1690540;83;20150;-85
2022/06/23 00:14:57;;;;;;;;;;;;;;;12.02;90.09;97810.48;1690837;84;21242;-82
2022/06/23 00:17:39;;;;;;;;;;;;;;;11.96;89.23;97804.86;1689715;84;20537;-85
2022/06/23 00:20:18;;;;;;;;;;;;;;;11.93;88.80;97796.77;1679516;85;20171;-86
2022/06/23 00:22:45;;;;;;;;;;;;;;;11.89;88.20;97797.11;1654337;85;21543;-85
2022/06/23 00:25:18;;;;;;;;;;;;;;;11.81;90.59;97802.64;1658633;86;20205;-82
2022/06/23 00:27:44;;;;;;;;;;;;;;;11.74;91.42;97802.16;1680360;85;21176;-83
2022/06/23 00:30:19;;;;;;;;;;;;;;;11.65;91.88;97800.39;1689494;85;20209;-82
2022/06/23 00:32:45;;;;;;;;;;;;;;;11.62;92.21;97800.95;1689016;83;20407;-86
2022/06/23 00:35:12;;;;;;;;;;;;;;;11.61;92.19;97806.13;1685773;85;20201;-85
2022/06/23 00:37:38;;;;;;;;;;;;;;;11.58;92.94;97804.27;1688521;83;20211;-85
2022/06/23 00:40:09;;;;;;;;;;;;;;;11.61;91.87;97810.20;1655409;85;21181;-83
2022/06/23 00:42:41;;;;;;;;;;;;;;;11.59;90.92;97813.21;1651176;85;20160;-86
2022/06/23 00:45:13;;;;;;;;;;;;;;;11.54;91.60;97819.52;1688356;84;20129;-86
2022/06/23 00:48:01;;;;;;;;;;;;;;;11.55;90.08;97820.33;1689639;83;20174;-82
2022/06/23 00:50:48;;;;;;;;;;;;;;;11.51;91.20;97823.34;1689906;84;20161;-85
2022/06/23 00:53:45;;;;;;;;;;;;;;;11.42;91.23;97829.97;1689707;83;21111;-86
2022/06/23 00:56:32;;;;;;;;;;;;;;;11.38;91.06;97828.14;1689977;85;20453;-82
2022/06/23 00:59:17;;;;;;;;;;;;;;;11.36;91.57;97833.02;1689816;84;20201;-83
2022/06/23 01:01:58;;;;;;;;;;;;;;;11.33;90.07;97838.48;1689909;83;20601;-82
2022/06/23 01:04:44;;;;;;;;;;;;;;;11.32;88.25;97838.23;1689830;85;20173;-82
2022/06/23 01:07:25;;;;;;;;;;;;;;;11.24;87.65;97834.79;1689137;83;21093;-86
2022/06/23 01:09:56;;;;;;;;;;;;;;;11.18;90.12;97838.09;1685807;85;20206;-82
2022/06/23 01:12:34;;;;;;;;;;;;;;;11.12;92.47;97831.13;1688135;83;20194;-82
2022/06/23 01:15:03;;;;;;;;;;;;;;;11.13;92.26;97829.23;1689793;85;20513;-82
2022/06/23 01:17:36;;;;;;;;;;;;;;;11.14;92.43;97835.72;1689761;85;20471;-82
2022/06/23 01:20:18;;;;;;;;;;;;;;;11.14;91.98;97834.36;1689317;85;21311;-85
2022/06/23 01:22:53;;;;;;;;;;;;;;;11.14;92.43;97831.64;1689706;85;20187;-86
2022/06/23 01:25:47;;;;;;;;;;;;;;;11.14;92.51;97829.48;1689772;85;20187;-82
2022/06/23 01:28:17;;;;;;;;;;;;;;;11.12;93.08;97835.20;1682157;85;20614;-85
2022/06/23 01:30:53;;;;;;;;;;;;;;;11.10;91.04;97833.30;1690190;85;20167;-83
2022/06/23 01:33:37;;;;;;;;;;;;;;;11.08;91.04;97838.76;1647603;85;20608;-86
2022/06/23 01:36:34;;;;;;;;;;;;;;;11.06;89.56;97842.31;1660284;84;20208;-86
2022/06/23 01:39:15;;;;;;;;;;;;;;;10.96;93.70;97841.88;1689891;84;20188;-82
2022/06/23 01:41:56;;;;;;;;;;;;;;;10.94;92.99;97835.94;1700807;82;20133;-86
2022/06/23 01:44:27;;;;;;;;;;;;;;;10.91;93.65;97834.58;1690918;84;20121;-85
2022/06/23 01:46:54;;;;;;;;;;;;;;;10.89;93.26;97838.13;1686440;84;20929;-83
2022/06/23 01:49:30;;;;;;;;;;;;;;;10.88;93.28;97846.55;1689743;84;20177;-83
2022/06/23 01:52:04;;;;;;;;;;;;;;;10.83;94.11;97844.69;1688581;85;20314;-82
2022/06/23 01:54:31;;;;;;;;;;;;;;;10.77;93.76;97846.37;1688714;85;20179;-86
2022/06/23 01:57:13;;;;;;;;;;;;;;;10.72;94.27;97852.66;1689830;83;20305;-82
2022/06/23 01:59:54;;;;;;;;;;;;;;;10.65;94.47;97846.20;1689696;85;21161;-82
2022/06/23 02:02:30;;;;;;;;;;;;;;;10.55;94.92;97850.91;1677276;85;20182;-82
2022/06/23 02:05:11;;;;;;;;;;;;;;;10.49;94.68;97850.67;1689547;85;20147;-82
2022/06/23 02:07:41;;;;;;;;;;;;;;;10.41;94.81;97856.14;1689787;85;20441;-82
2022/06/23 02:10:18;;;;;;;;;;;;;;;10.37;93.45;97857.27;1691843;85;20169;-81
2022/06/23 02:13:08;;;;;;;;;;;;;;;10.33;94.67;97857.55;1674711;83;21072;-82
2022/06/23 02:15:38;;;;;;;;;;;;;;;10.32;95.12;97855.94;1688339;85;20133;-85
2022/06/23 02:18:29;;;;;;;;;;;;;;;10.31;96.59;97857.58;1689104;84;20191;-86
2022/06/23 02:21:18;;;;;;;;;;;;;;;10.33;96.40;97859.45;1688174;84;20329;-82
2022/06/23 02:23:50;;;;;;;;;;;;;;;10.35;97.28;97858.10;1666838;85;20181;-82
2022/06/23 02:26:26;;;;;;;;;;;;;;;10.41;96.26;97863.72;1662374;84;21152;-86
2022/06/23 02:29:12;;;;;;;;;;;;;;;10.47;96.18;97867.22;1689395;83;20535;-82
2022/06/23 02:31:50;;;;;;;;;;;;;;;10.41;95.51;97862.91;1688811;85;20202;-82
2022/06/23 02:34:23;;;;;;;;;;;;;;;10.35;94.51;97860.81;1689010;85;20481;-85
2022/06/23 02:37:09;;;;;;;;;;;;;;;10.25;95.23;97863.56;1690038;83;20204;-86
2022/06/23 02:39:49;;;;;;;;;;;;;;;10.23;94.05;97860.34;1684316;85;21870;-82
2022/06/23 02:42:26;;;;;;;;;;;;;;;10.17;95.60;97862.25;1689754;84;20152;-82
2022/06/23 02:44:59;;;;;;;;;;;;;;;10.15;95.49;97863.61;1689537;85;20191;-82
2022/06/23 02:47:31;;;;;;;;;;;;;;;10.11;95.89;97862.02;1680716;84;20177;-85
2022/06/23 02:50:21;;;;;;;;;;;;;;;10.09;95.54;97868.27;1661375;85;20190;-86
2022/06/23 02:52:51;;;;;;;;;;;;;;;10.06;94.72;97866.09;1684014;84;21130;-82
2022/06/23 02:55:45;;;;;;;;;;;;;;;10.01;94.98;97871.55;1658350;86;20138;-81
2022/06/23 02:58:20;;;;;;;;;;;;;;;10.00;96.07;97874.00;1679191;84;20194;-82
2022/06/23 03:01:02;;;;;;;;;;;;;;;10.02;95.68;97882.64;1689755;85;20484;-82
2022/06/23 03:03:40;;;;;;;;;;;;;;;10.02;96.35;97886.70;1667871;85;20158;-86
2022/06/23 03:06:15;;;;;;;;;;;;;;;10.01;96.07;97886.98;1689682;84;21130;-82
2022/06/23 03:08:45;;;;;;;;;;;;;;;10.00;96.28;97892.11;1689537;83;20164;-86
2022/06/23 03:11:17;;;;;;;;;;;;;;;10.04;95.13;97892.64;1689710;84;20163;-85
2022/06/23 03:13:51;;;;;;;;;;;;;;;10.04;95.14;97894.55;1689591;83;20179;-82
2022/06/23 03:16:23;;;;;;;;;;;;;;;10.00;94.40;97897.52;1689838;85;20172;-86
2022/06/23 03:18:55;;;;;;;;;;;;;;;9.96;96.14;97902.70;1689630;83;21047;-82
2022/06/23 03:21:28;;;;;;;;;;;;;;;9.96;95.88;97908.11;1689830;85;20210;-85
2022/06/23 03:24:06;;;;;;;;;;;;;;;9.94;95.86;97904.08;1686964;83;20183;-85
2022/06/23 03:26:47;;;;;;;;;;;;;;;9.96;95.87;97914.88;1686983;85;20163;-86
2022/06/23 03:29:20;;;;;;;;;;;;;;;10.04;94.04;97914.30;1689722;84;20174;-85
2022/06/23 03:31:55;;;;;;;;;;;;;;;10.08;95.18;97912.67;1689482;85;22118;-85
2022/06/23 03:34:28;;;;;;;;;;;;;;;10.20;95.98;97915.03;1689548;84;20143;-86
2022/06/23 03:37:00;;;;;;;;;;;;;;;10.29;94.90;97918.80;1689706;84;20160;-85
2022/06/23 03:42:43;;;;;;;;;;;;;;;10.43;93.55;97927.94;1689939;85;20167;-82
2022/06/23 03:45:19;;;;;;;;;;;;;;;10.50;92.91;97929.49;1687861;85;21491;-81
2022/06/23 03:48:03;;;;;;;;;;;;;;;10.52;92.73;97928.15;1684597;84;20245;-82
2022/06/23 03:50:33;;;;;;;;;;;;;;;10.65;92.30;97929.40;1658685;86;20176;-82
2022/06/23 03:53:21;;;;;;;;;;;;;;;10.80;91.36;97935.26;1683434;83;20166;-81
2022/06/23 03:55:49;;;;;;;;;;;;;;;10.86;90.69;97938.20;1690694;84;20188;-82
2022/06/23 03:58:18;;;;;;;;;;;;;;;10.89;92.03;97942.50;1689053;83;21158;-83
2022/06/23 04:01:03;;;;;;;;;;;;;;;11.01;92.16;97940.22;1689520;85;20177;-82
2022/06/23 04:03:37;;;;;;;;;;;;;;;11.17;91.71;97940.89;1689655;83;20188;-81
2022/06/23 04:06:15;;;;;;;;;;;;;;;11.32;90.92;97949.45;1689646;85;20578;-86
2022/06/23 04:09:17;;;;;;;;;;;;;;;11.42;91.09;97947.17;1689709;84;20170;-85
2022/06/23 04:11:51;;;;;;;;;;;;;;;11.58;90.60;97950.80;1689808;83;21185;-86
2022/06/23 04:14:35;;;;;;;;;;;;;;;11.77;89.90;97956.84;1689581;84;20195;-86
2022/06/23 04:17:13;;;;;;;;;;;;;;;11.93;88.31;97950.17;1689727;85;20187;-82
2022/06/23 04:19:42;;;;;;;;;;;;;;;11.98;88.39;97954.75;1689745;85;20168;-86
2022/06/23 04:22:11;;;;;;;;;;;;;;;12.09;88.05;97951.61;1689879;83;20179;-86
2022/06/23 04:24:37;;;;;;;;;;;;;;;12.16;87.92;97960.77;1677253;85;21090;-82
2022/06/23 04:27:10;;;;;;;;;;;;;;;12.29;87.94;97952.44;1689900;83;20173;-82
2022/06/23 04:29:37;;;;;;;;;;;;;;;12.49;87.22;97957.61;1689769;84;20768;-83
2022/06/23 04:32:16;;;;;;;;;;;;;;;12.60;85.71;97966.42;1689834;83;20169;-86
2022/06/23 04:34:46;;;;;;;;;;;;;;;12.65;86.04;97965.00;1689809;85;20204;-82
2022/06/23 04:37:18;;;;;;;;;;;;;;;12.83;85.99;97970.17;1689813;85;21036;-86
2022/06/23 04:39:44;;;;;;;;;;;;;;;13.01;84.09;97969.34;1689830;84;20201;-82
2022/06/23 04:42:21;;;;;;;;;;;;;;;13.02;83.99;97974.22;1695686;83;20206;-82
2022/06/23 04:44:49;;;;;;;;;;;;;;;13.14;83.86;97968.56;1693977;83;20159;-86
2022/06/23 04:47:24;;;;;;;;;;;;;;;13.22;83.67;97973.91;1694082;84;20202;-83
2022/06/23 04:50:00;;;;;;;;;;;;;;;13.38;82.73;97972.55;1699280;84;21170;-85
2022/06/23 04:52:29;;;;;;;;;;;;;;;13.49;82.37;97973.17;1695355;84;20209;-81
2022/06/23 04:55:04;;;;;;;;;;;;;;;13.59;82.21;97978.45;1690137;84;20209;-82
2022/06/23 04:57:36;;;;;;;;;;;;;;;13.72;81.83;97969.48;1689945;83;20170;-82
2022/06/23 05:00:02;;;;;;;;;;;;;;;13.88;81.56;97968.64;1692383;83;20174;-82
2022/06/23 05:02:34;;;;;;;;;;;;;;;14.02;81.27;97974.91;1693482;84;21277;-85
2022/06/23 05:05:06;;;;;;;;;;;;;;;14.14;80.74;97971.66;1695150;84;20205;-82
2022/06/23 05:07:42;;;;;;;;;;;;;;;14.27;81.46;97974.95;1694070;83;20227;-83
2022/06/23 05:10:17;;;;;;;;;;;;;;;14.53;81.44;97982.05;1701768;84;20480;-85
2022/06/23 05:12:47;;;;;;;;;;;;;;;14.82;81.20;97981.67;1692518;83;20196;-82
2022/06/23 05:15:21;;;;;;;;;;;;;;;15.09;80.79;97984.05;1689978;84;20695;-82
2022/06/23 05:17:50;;;;;;;;;;;;;;;15.31;79.98;97987.34;1683205;84;20159;-83
2022/06/23 05:20:19;;;;;;;;;;;;;;;15.47;78.91;97991.30;1667938;84;20484;-82
2022/06/23 05:22:45;;;;;;;;;;;;;;;15.57;79.29;97994.33;1691821;84;20171;-82
2022/06/23 05:25:24;;;;;;;;;;;;;;;15.70;77.33;97992.89;1689943;85;20265;-86
2022/06/23 05:27:49;;;;;;;;;;;;;;;15.89;78.72;97995.95;1673119;85;21076;-86
2022/06/23 05:30:27;;;;;;;;;;;;;;;16.11;76.54;98001.36;1685922;85;20777;-86
2022/06/23 05:33:04;;;;;;;;;;;;;;;16.04;74.12;98001.80;1687811;83;20217;-83
2022/06/23 05:35:35;;;;;;;;;;;;;;;16.36;75.84;98002.00;1697142;84;20174;-85
2022/06/23 05:38:07;;;;;;;;;;;;;;;16.42;75.26;98002.67;1683408;84;20197;-82
2022/06/23 05:40:36;;;;;;;;;;;;;;;16.55;73.89;98000.91;1689435;84;21145;-83
2022/06/23 05:43:02;;;;;;;;;;;;;;;16.79;73.61;98002.67;1680174;83;20170;-82
2022/06/23 05:45:31;;;;;;;;;;;;;;;16.98;71.94;98009.20;1658936;86;20190;-83
2022/06/23 05:47:57;;;;;;;;;;;;;;;17.16;73.02;98005.33;1682862;85;20450;-86
2022/06/23 05:50:29;;;;;;;;;;;;;;;17.38;72.49;98008.47;1689960;85;20518;-83
2022/06/23 05:53:01;;;;;;;;;;;;;;;17.44;71.05;98012.66;1691767;84;21041;-83
2022/06/23 05:55:36;;;;;;;;;;;;;;;17.54;71.15;98014.25;1687198;85;20480;-82
2022/06/23 05:58:29;;;;;;;;;;;;;;;17.60;69.74;98014.30;1673047;83;20173;-83
2022/06/23 06:01:08;;;;;;;;;;;;;;;17.69;68.94;98006.89;1683319;85;20194;-83
2022/06/23 06:03:45;;;;;;;;;;;;;;;17.82;67.77;98011.95;1683773;83;20198;-83
2022/06/23 06:06:11;;;;;;;;;;;;;;;17.91;68.25;98011.92;1688256;85;21214;-87
2022/06/23 06:11:31;;;;;;;;;;;;;;;18.16;68.27;98010.22;1704756;83;20227;-87
2022/06/23 06:13:57;;;;;;;;;;;;;;;18.37;66.12;98016.56;1668257;85;20189;-82
2022/06/23 06:16:23;;;;;;;;;;;;;;;18.58;66.83;98016.05;1668588;85;20203;-87
2022/06/23 06:18:48;;;;;;;;;;;;;;;18.73;65.68;98010.59;1716065;82;21101;-87
2022/06/23 06:21:20;;;;;;;;;;;;;;;18.95;66.02;98011.39;1708017;82;20816;-87
2022/06/23 06:24:04;;;;;;;;;;;;;;;19.03;65.46;98011.90;1705923;82;20653;-87
2022/06/23 06:26:39;;;;;;;;;;;;;;;19.18;64.44;98012.67;1711116;82;20197;-86
2022/06/23 06:29:11;;;;;;;;;;;;;;;19.50;66.48;98018.54;1668398;83;20165;-85
2022/06/23 06:31:40;;;;;;;;;;;;;;;19.80;66.22;98016.47;1703069;82;21090;-87
2022/06/23 06:34:24;;;;;;;;;;;;;;;20.00;64.98;98017.79;1711228;82;20197;-88
2022/06/23 06:36:51;;;;;;;;;;;;;;;20.02;63.22;98016.07;1688049;81;20196;-87
2022/06/23 06:39:23;;;;;;;;;;;;;;;20.02;61.86;98016.07;1677797;84;20216;-87
2022/06/23 06:42:10;;;;;;;;;;;;;;;20.29;61.96;98020.91;1675667;84;20227;-88
2022/06/23 06:44:38;;;;;;;;;;;;;;;20.48;61.45;98018.98;1666084;84;21934;-87
2022/06/23 06:47:04;;;;;;;;;;;;;;;20.70;61.17;98016.92;1705718;82;20477;-88
2022/06/23 06:49:30;;;;;;;;;;;;;;;20.86;61.42;98011.50;1669160;84;20254;-87
2022/06/23 06:51:56;;;;;;;;;;;;;;;20.95;59.98;98019.86;1686445;84;20162;-88
2022/06/23 06:54:40;;;;;;;;;;;;;;;21.10;60.88;98016.36;1688650;83;20187;-88
2022/06/23 06:57:10;;;;;;;;;;;;;;;21.23;57.64;98021.84;1686884;83;21277;-87
2022/06/23 06:59:57;;;;;;;;;;;;;;;21.50;59.80;98021.66;1700191;82;20224;-86
2022/06/23 07:02:29;;;;;;;;;;;;;;;21.70;58.19;98020.63;1681438;84;20254;-88
2022/06/23 07:05:01;;;;;;;;;;;;;;;21.91;60.45;98022.59;1674971;84;20182;-87
2022/06/23 07:07:29;;;;;;;;;;;;;;;22.11;56.76;98026.86;1670735;84;20261;-87
2022/06/23 07:09:58;;;;;;;;;;;;;;;22.30;59.12;98022.01;1678251;85;21122;-86
2022/06/23 07:12:27;;;;;;;;;;;;;;;22.33;58.77;98023.50;1699949;82;20296;-86
2022/06/23 07:15:20;;;;;;;;;;;;;;;22.38;55.99;98023.78;1698360;82;20197;-82
2022/06/23 07:17:52;;;;;;;;;;;;;;;22.49;57.19;98027.05;1673086;84;20439;-82
2022/06/23 07:20:24;;;;;;;;;;;;;;;22.60;54.95;98031.44;1687159;84;20153;-88
2022/06/23 07:22:58;;;;;;;;;;;;;;;22.78;54.88;98029.89;1686691;83;20951;-87
2022/06/23 07:25:27;;;;;;;;;;;;;;;22.79;51.63;98032.86;1686375;83;20211;-88
2022/06/23 07:27:56;;;;;;;;;;;;;;;22.92;46.70;98032.22;1685597;83;20357;-83
2022/06/23 07:30:27;;;;;;;;;;;;;;;23.07;46.69;98034.69;1692477;83;20191;-83
2022/06/23 07:32:59;;;;;;;;;;;;;;;23.23;44.97;98033.26;1687024;83;20178;-83
2022/06/23 07:35:49;;;;;;;;;;;;;;;23.34;44.47;98037.87;1675572;84;21178;-83
2022/06/23 07:38:34;;;;;;;;;;;;;;;23.52;44.67;98045.14;1676911;84;20216;-83
2022/06/23 07:41:12;;;;;;;;;;;;;;;23.52;41.51;98042.96;1671071;85;21493;-83
2022/06/23 07:43:45;;;;;;;;;;;;;;;23.80;44.89;98047.69;1682097;84;20242;-83
2022/06/23 07:46:11;;;;;;;;;;;;;;;24.19;45.03;98042.09;1684194;83;20224;-83
2022/06/23 07:48:36;;;;;;;;;;;;;;;24.47;42.91;98045.95;1683911;83;21263;-83
2022/06/23 07:51:03;;;;;;;;;;;;;;;24.75;42.16;98049.16;1691938;83;20246;-83
2022/06/23 07:53:32;;;;;;;;;;;;;;;24.83;41.72;98045.91;1686556;83;20627;-83
2022/06/23 07:55:58;;;;;;;;;;;;;;;24.93;42.82;98042.50;1681010;84;20219;-83
2022/06/23 07:58:25;;;;;;;;;;;;;;;25.11;37.97;98045.55;1689667;83;20224;-83
2022/06/23 08:00:55;;;;;;;;;;;;;;;25.32;36.95;98050.59;1683979;83;23005;-83
2022/06/23 08:03:25;;;;;;;;;;;;;;;25.92;35.72;98049.16;1685090;83;20182;-83
2022/06/23 08:05:53;;;;;;;;;;;;;;;26.40;35.89;98044.48;1687853;84;20205;-83
2022/06/23 08:08:21;;;;;;;;;;;;;;;26.36;37.48;98046.41;1664918;83;20338;-83
2022/06/23 08:10:47;;;;;;;;;;;;;;;26.51;37.29;98040.42;1687356;85;20293;-84
2022/06/23 08:13:18;;;;;;;;;;;;;;;26.84;36.24;98043.66;1685606;84;21131;-89
2022/06/23 08:18:41;;;;;;;;;;;;;;;26.70;40.08;98044.94;1679446;83;20177;-89
2022/06/23 08:21:23;;;;;;;;;;;;;;;27.50;39.03;98049.20;1685473;84;20167;-88
2022/06/23 08:24:00;;;;;;;;;;;;;;;27.72;32.93;98038.39;1683110;84;20201;-87
2022/06/23 08:26:26;;;;;;;;;;;;;;;28.29;33.90;98046.11;1689712;83;20963;-88
2022/06/23 08:28:55;;;;;;;;;;;;;;;27.45;34.83;98049.00;1676734;83;20179;-88
2022/06/23 08:31:21;;;;;;;;;;;;;;;27.11;36.52;98044.84;1679411;83;20174;-89
2022/06/23 08:33:47;;;;;;;;;;;;;;;25.73;35.25;98057.68;1682527;83;20233;-88
2022/06/23 08:36:15;;;;;;;;;;;;;;;24.99;36.82;98054.87;1687180;83;20243;-88
2022/06/23 08:39:00;;;;;;;;;;;;;;;24.84;37.45;98062.75;1686797;83;21152;-88
2022/06/23 08:41:33;;;;;;;;;;;;;;;25.98;36.65;98063.48;1680208;83;20151;-88
2022/06/23 08:44:05;;;;;;;;;;;;;;;27.17;35.46;98052.41;1680311;83;20256;-87
2022/06/23 08:46:40;;;;;;;;;;;;;;;26.70;35.21;98059.63;1683097;84;20173;-88
2022/06/23 08:49:13;;;;;;;;;;;;;;;25.82;35.78;98063.73;1684320;83;20152;-88
2022/06/23 08:52:00;;;;;;;;;;;;;;;26.36;36.63;98054.75;1685712;83;21304;-88
2022/06/23 08:54:35;;;;;;;;;;;;;;;25.24;37.79;98060.80;1686080;84;20201;-88
2022/06/23 08:57:05;;;;;;;;;;;;;;;25.18;38.77;98055.95;1687228;83;20224;-88
2022/06/23 08:59:47;;;;;;;;;;;;;;;24.84;39.04;98050.87;1688898;83;20241;-86
2022/06/23 09:02:16;;;;;;;;;;;;;;;24.37;39.05;98052.91;1678599;84;20220;-88
2022/06/23 09:04:46;;;;;;;;;;;;;;;25.13;38.85;98050.75;1684012;85;21182;-88
2022/06/23 09:07:15;;;;;;;;;;;;;;;26.11;37.54;98050.94;1687596;84;20259;-88
2022/06/23 09:10:00;;;;;;;;;;;;;;;25.99;38.38;98058.95;1681646;83;21011;-88
2022/06/23 09:12:32;;;;;;;;;;;;;;;25.76;33.84;98063.25;1681117;83;20183;-87
2022/06/23 09:15:08;;;;;;;;;;;;;;;25.68;35.82;98058.77;1666070;85;20864;-87
2022/06/23 09:17:59;;;;;;;;;;;;;;;25.31;36.81;98057.33;1686401;84;21142;-90
2022/06/23 09:20:35;;;;;;;;;;;;;;;25.58;37.07;98060.24;1696555;82;20264;-86
2022/06/23 09:23:31;;;;;;;;;;;;;;;25.58;36.82;98060.83;1683442;84;20168;-88
2022/06/23 09:26:04;;;;;;;;;;;;;;;24.91;36.71;98057.32;1698864;83;20225;-88
2022/06/23 09:28:34;;;;;;;;;;;;;;;25.42;36.35;98052.70;1693959;82;20162;-87
2022/06/23 09:31:24;;;;;;;;;;;;;;;25.01;36.84;98051.13;1696915;83;20997;-87
2022/06/23 09:33:59;;;;;;;;;;;;;;;24.51;36.84;98059.25;1701717;83;20244;-88
2022/06/23 09:36:55;;;;;;;;;;;;;;;24.28;36.35;98063.41;1677051;83;20400;-89
2022/06/23 09:39:41;;;;;;;;;;;;;;;25.78;36.00;98058.12;1680169;84;20453;-88
2022/06/23 09:42:11;;;;;;;;;;;;;;;26.47;32.98;98056.84;1673310;84;20254;-89
2022/06/23 09:44:49;;;;;;;;;;;;;;;28.15;29.33;98057.19;1675198;84;21783;-89
2022/06/23 09:47:35;;;;;;;;;;;;;;;29.49;28.41;98052.77;1670782;84;20224;-89
2022/06/23 09:50:20;;;;;;;;;;;;;;;28.75;30.08;98054.46;1676516;84;21090;-88
2022/06/23 09:52:56;;;;;;;;;;;;;;;29.56;30.30;98056.91;1679701;83;20175;-89
2022/06/23 09:55:52;;;;;;;;;;;;;;;30.21;26.72;98058.80;1686938;83;20131;-88
2022/06/23 09:58:33;;;;;;;;;;;;;;;31.58;25.20;98052.36;1684532;83;21098;-90
2022/06/23 10:01:24;;;;;;;;;;;;;;;31.50;25.50;98044.47;1684429;83;20154;-89
2022/06/23 10:04:08;;;;;;;;;;;;;;;29.61;26.98;98058.50;1688210;83;20220;-89
2022/06/23 10:06:38;;;;;;;;;;;;;;;31.53;25.44;98055.61;1689633;83;20228;-90
2022/06/23 10:09:16;;;;;;;;;;;;;;;31.83;24.22;98047.88;1689477;84;20141;-89
2022/06/23 10:11:58;;;;;;;;;;;;;;;32.38;22.56;98043.09;1682942;83;21113;-90
2022/06/23 10:14:36;;;;;;;;;;;;;;;30.52;25.25;98052.19;1684218;83;20221;-89
2022/06/23 10:17:21;;;;;;;;;;;;;;;29.20;26.84;98045.05;1680089;84;20253;-89
2022/06/23 10:19:56;;;;;;;;;;;;;;;27.47;29.08;98050.78;1687503;84;20355;-89
2022/06/23 10:22:35;;;;;;;;;;;;;;;30.10;27.55;98049.70;1682648;83;20453;-90
2022/06/23 10:25:22;;;;;;;;;;;;;;;31.46;24.44;98050.13;1686079;83;21915;-90
2022/06/23 10:27:54;;;;;;;;;;;;;;;32.07;24.91;98051.55;1690047;83;20206;-89
2022/06/23 10:30:42;;;;;;;;;;;;;;;30.55;24.08;98052.76;1687903;83;20218;-89
2022/06/23 10:33:23;;;;;;;;;;;;;;;33.25;22.01;98054.65;1686685;83;20149;-89
2022/06/23 10:36:25;;;;;;;;;;;;;;;31.45;22.39;98061.14;1675226;84;20143;-89
2022/06/23 10:39:03;;;;;;;;;;;;;;;33.59;22.67;98055.02;1692777;83;21184;-90
2022/06/23 10:41:39;;;;;;;;;;;;;;;34.64;20.21;98053.69;1685592;83;20264;-90
2022/06/23 10:44:14;;;;;;;;;;;;;;;34.56;20.48;98047.44;1688214;83;20194;-88
2022/06/23 10:46:42;;;;;;;;;;;;;;;34.73;21.06;98050.42;1673547;83;20366;-89
2022/06/23 10:49:31;;;;;;;;;;;;;;;34.69;19.21;98048.30;1685342;84;20194;-90
2022/06/23 10:52:22;;;;;;;;;;;;;;;34.66;19.26;98042.16;1688412;83;21148;-88
2022/06/23 10:55:01;;;;;;;;;;;;;;;34.53;19.55;98045.52;1692573;83;20197;-90
2022/06/23 10:57:51;;;;;;;;;;;;;;;35.63;21.16;98044.61;1684940;83;20214;-89
2022/06/23 11:00:19;;;;;;;;;;;;;;;32.82;22.05;98049.00;1682615;83;20251;-90
2022/06/23 11:03:00;;;;;;;;;;;;;;;30.01;26.19;98052.92;1687257;83;20138;-89
2022/06/23 11:05:42;;;;;;;;;;;;;;;28.79;28.29;98053.05;1686036;84;21793;-90
2022/06/23 11:08:45;;;;;;;;;;;;;;;28.24;28.88;98059.79;1685573;83;20141;-88
2022/06/23 11:11:37;;;;;;;;;;;;;;;28.03;28.62;98060.56;1697199;83;20629;-88
2022/06/23 11:14:19;;;;;;;;;;;;;;;27.47;28.87;98058.34;1687517;83;20164;-88
2022/06/23 11:16:49;;;;;;;;;;;;;;;30.59;26.85;98056.33;1686886;83;20464;-88
2022/06/23 11:19:18;;;;;;;;;;;;;;;31.84;23.02;98049.45;1687611;84;21217;-89
2022/06/23 11:22:10;;;;;;;;;;;;;;;32.69;22.40;98057.21;1679935;83;20161;-88
2022/06/23 11:24:43;;;;;;;;;;;;;;;32.51;21.74;98045.50;1690298;83;20156;-90
2022/06/23 11:27:24;;;;;;;;;;;;;;;31.38;22.40;98048.02;1687900;83;20143;-89
2022/06/23 11:30:22;;;;;;;;;;;;;;;29.51;23.62;98051.77;1681143;84;20185;-88
2022/06/23 11:33:17;;;;;;;;;;;;;;;29.74;23.81;98052.67;1689620;83;21230;-86
2022/06/23 11:36:03;;;;;;;;;;;;;;;33.00;22.66;98048.09;1688928;83;20131;-88
2022/06/23 11:38:38;;;;;;;;;;;;;;;32.93;22.24;98048.22;1647179;84;20327;-84
2022/06/23 11:41:41;;;;;;;;;;;;;;;32.41;22.04;98043.67;1663788;83;20226;-85
2022/06/23 11:44:27;;;;;;;;;;;;;;;32.97;22.09;98036.91;1682167;83;20146;-84
2022/06/23 11:46:59;;;;;;;;;;;;;;;30.57;24.11;98036.36;1680575;83;21135;-84
2022/06/23 11:49:41;;;;;;;;;;;;;;;31.44;24.30;98030.92;1687458;85;20139;-84
2022/06/23 11:52:30;;;;;;;;;;;;;;;32.95;23.29;98027.53;1685965;82;20169;-85
2022/06/23 11:55:08;;;;;;;;;;;;;;;33.73;21.56;98025.81;1683905;84;20250;-85
2022/06/23 11:57:56;;;;;;;;;;;;;;;35.50;21.30;98019.23;1685341;83;20179;-85
2022/06/23 12:00:25;;;;;;;;;;;;;;;35.20;18.89;98018.25;1687682;84;21130;-85
2022/06/23 12:03:15;;;;;;;;;;;;;;;36.11;19.67;98018.84;1676994;83;20216;-85
2022/06/23 12:05:53;;;;;;;;;;;;;;;36.88;19.18;98014.72;1688702;84;20146;-85
2022/06/23 12:08:35;;;;;;;;;;;;;;;38.19;18.51;98011.06;1688025;83;21519;-85
2022/06/23 12:11:00;;;;;;;;;;;;;;;37.24;18.18;98014.23;1685859;83;20186;-90
2022/06/23 12:13:26;;;;;;;;;;;;;;;38.63;16.89;98005.26;1687254;83;21772;-91
2022/06/23 12:15:55;;;;;;;;;;;;;;;37.94;17.90;98006.39;1687901;83;20324;-90
2022/06/23 12:18:26;;;;;;;;;;;;;;;37.89;16.91;98011.25;1686473;84;20172;-89
2022/06/23 12:21:01;;;;;;;;;;;;;;;36.72;16.86;98008.57;1684522;83;20340;-90
2022/06/23 12:23:33;;;;;;;;;;;;;;;36.85;16.68;98002.15;1683545;83;20312;-89
2022/06/23 12:26:11;;;;;;;;;;;;;;;36.78;16.91;98006.59;1668254;84;21109;-90
2022/06/23 12:29:01;;;;;;;;;;;;;;;37.20;18.23;98000.88;1683504;83;20168;-88
2022/06/23 12:31:42;;;;;;;;;;;;;;;38.24;17.06;98002.00;1685540;83;20146;-89
2022/06/23 12:34:26;;;;;;;;;;;;;;;38.19;16.17;98000.38;1686680;83;20423;-90
2022/06/23 12:37:07;;;;;;;;;;;;;;;37.76;16.47;97997.80;1689285;83;20132;-89
2022/06/23 12:39:45;;;;;;;;;;;;;;;37.73;16.41;98000.14;1688398;83;21100;-88
2022/06/23 12:42:20;;;;;;;;;;;;;;;38.46;17.45;97996.86;1681287;83;20140;-90
2022/06/23 12:45:09;;;;;;;;;;;;;;;38.06;16.37;97997.03;1687973;83;20246;-91
2022/06/23 12:47:45;;;;;;;;;;;;;;;38.58;17.28;97997.37;1679334;83;20148;-90
2022/06/23 12:50:31;;;;;;;;;;;;;;;38.32;15.94;97991.19;1671825;84;20240;-90
2022/06/23 12:53:17;;;;;;;;;;;;;;;38.44;16.52;97993.09;1686265;83;21777;-91
2022/06/23 12:55:58;;;;;;;;;;;;;;;38.32;16.68;97991.97;1691987;83;20344;-89
2022/06/23 12:58:37;;;;;;;;;;;;;;;38.86;16.86;97996.17;1683819;84;20203;-90
2022/06/23 13:01:06;;;;;;;;;;;;;;;37.99;17.24;97995.12;1676421;84;20179;-89
2022/06/23 13:03:54;;;;;;;;;;;;;;;37.13;17.29;97996.11;1694645;83;20176;-90
2022/06/23 13:06:29;;;;;;;;;;;;;;;37.14;16.75;97985.75;1665524;84;21252;-90
2022/06/23 13:09:05;;;;;;;;;;;;;;;37.86;17.11;97983.11;1681159;84;20170;-90
2022/06/23 13:11:40;;;;;;;;;;;;;;;38.46;17.53;97979.88;1661010;84;20090;-89
2022/06/23 13:14:13;;;;;;;;;;;;;;;38.90;17.48;97985.50;1686096;82;20205;-90
2022/06/23 13:16:42;;;;;;;;;;;;;;;38.66;16.69;97984.50;1686062;84;20178;-91
2022/06/23 13:19:12;;;;;;;;;;;;;;;38.54;17.73;97986.82;1683016;84;21069;-90
2022/06/23 13:21:40;;;;;;;;;;;;;;;38.96;18.23;97984.22;1665819;84;20220;-91
2022/06/23 13:24:17;;;;;;;;;;;;;;;38.59;17.49;97981.97;1670352;83;20172;-90
2022/06/23 13:26:46;;;;;;;;;;;;;;;37.83;16.83;97980.59;1684153;83;20229;-90
2022/06/23 13:29:26;;;;;;;;;;;;;;;35.74;17.61;97988.74;1687334;83;21188;-90
2022/06/23 13:32:16;;;;;;;;;;;;;;;36.18;18.51;97983.37;1687467;83;21071;-90
2022/06/23 13:35:13;;;;;;;;;;;;;;;36.87;19.30;97977.85;1685138;84;20290;-90
2022/06/23 13:37:50;;;;;;;;;;;;;;;35.71;17.90;97983.98;1686133;83;20155;-89
2022/06/23 13:40:23;;;;;;;;;;;;;;;35.70;18.75;97983.03;1660022;85;21343;-89
2022/06/23 13:43:14;;;;;;;;;;;;;;;34.92;18.50;97984.02;1682899;83;20189;-90